createdAt,value
2017-10-17T00:00:11.124Z,14.67
2017-10-17T00:02:40.237Z,13.80
2017-10-17T00:05:09.111Z,15.03
2017-10-17T00:07:38.211Z,14.63
2017-10-17T00:10:07.136Z,14.70
2017-10-17T00:12:36.098Z,15.60
2017-10-17T00:15:05.293Z,13.80
2017-10-17T00:17:34.391Z,15.80
2017-10-17T00:20:04.116Z,15.90
2017-10-17T00:22:33.093Z,16.13
2017-10-17T00:25:02.087Z,17.00
2017-10-17T00:27:31.794Z,16.90
2017-10-17T00:30:01.506Z,17.37
2017-10-17T00:32:47.030Z,18.73
2017-10-17T00:35:16.942Z,19.00
2017-10-17T00:37:45.895Z,18.80
2017-10-17T00:40:15.932Z,18.40
2017-10-17T00:42:45.029Z,18.13
2017-10-17T00:45:14.101Z,19.27
2017-10-17T00:47:44.938Z,18.63
2017-10-17T00:50:14.923Z,20.07
2017-10-17T00:52:44.057Z,21.17
2017-10-17T00:55:12.980Z,19.37
2017-10-17T00:57:43.116Z,19.70
2017-10-17T01:00:12.130Z,19.30
2017-10-17T01:02:41.155Z,20.10
2017-10-17T01:05:10.357Z,21.23
2017-10-17T01:07:39.375Z,20.40
2017-10-17T01:10:08.336Z,20.97
2017-10-17T01:12:38.255Z,19.90
2017-10-17T01:15:07.041Z,20.20
2017-10-17T01:17:36.036Z,19.80
2017-10-17T01:20:08.378Z,20.93
2017-10-17T01:22:37.475Z,20.53
2017-10-17T01:25:06.700Z,21.03
2017-10-17T01:27:36.410Z,20.47
2017-10-17T01:30:06.081Z,20.77
2017-10-17T01:32:36.040Z,21.83
2017-10-17T01:35:08.923Z,20.80
2017-10-17T01:37:37.915Z,20.23
2017-10-17T01:40:22.476Z,20.37
2017-10-17T01:42:52.185Z,20.17
2017-10-17T01:45:21.134Z,21.40
2017-10-17T01:47:50.069Z,20.10
2017-10-17T01:50:22.648Z,20.80
2017-10-17T01:53:09.970Z,20.17
2017-10-17T01:55:39.885Z,21.63
2017-10-17T01:58:11.134Z,20.53
2017-10-17T02:00:41.682Z,20.83
2017-10-17T02:03:10.551Z,20.90
2017-10-17T02:05:39.648Z,19.90
2017-10-17T02:08:11.287Z,19.00
2017-10-17T02:10:40.983Z,19.73
2017-10-17T02:13:10.932Z,18.50
2017-10-17T02:15:40.025Z,16.87
2017-10-17T02:18:13.832Z,16.87
2017-10-17T02:20:43.494Z,20.40
2017-10-17T02:23:12.434Z,18.10
2017-10-17T02:25:42.142Z,19.10
2017-10-17T02:28:24.859Z,18.77
2017-10-17T02:30:54.608Z,18.30
2017-10-17T02:33:29.298Z,17.60
2017-10-17T02:35:58.287Z,17.73
2017-10-17T02:38:28.001Z,17.53
2017-10-17T02:40:58.528Z,18.30
2017-10-17T02:43:29.261Z,17.70
2017-10-17T02:45:58.974Z,18.33
2017-10-17T02:48:32.285Z,18.57
2017-10-17T02:51:01.607Z,17.20
2017-10-17T02:53:32.011Z,18.90
2017-10-17T02:56:02.013Z,16.77
2017-10-17T02:58:30.950Z,16.50
2017-10-17T03:01:00.012Z,17.07
2017-10-17T03:03:30.958Z,16.63
2017-10-17T03:06:01.065Z,17.43
2017-10-17T03:08:30.053Z,15.27
2017-10-17T03:10:59.765Z,17.07
2017-10-17T03:13:28.757Z,15.67
2017-10-17T03:15:59.284Z,15.40
2017-10-17T03:18:31.698Z,14.70
2017-10-17T03:21:09.224Z,14.03
2017-10-17T03:23:38.244Z,14.00
2017-10-17T03:26:07.278Z,14.10
2017-10-17T03:28:38.086Z,13.43
2017-10-17T03:31:12.292Z,13.53
2017-10-17T03:33:40.981Z,13.30
2017-10-17T03:36:16.114Z,14.50
2017-10-17T03:38:55.758Z,14.03
2017-10-17T03:41:25.264Z,15.00
2017-10-17T03:43:54.262Z,14.20
2017-10-17T03:46:24.341Z,14.87
2017-10-17T03:48:52.858Z,13.93
2017-10-17T03:51:24.514Z,15.23
2017-10-17T03:53:53.205Z,14.67
2017-10-17T03:56:26.606Z,13.13
2017-10-17T03:58:55.289Z,15.90
2017-10-17T04:01:34.173Z,15.90
2017-10-17T04:04:07.509Z,16.70
2017-10-17T04:09:55.155Z,20.20
2017-10-17T04:12:24.455Z,18.77
2017-10-17T04:14:56.017Z,17.70
2017-10-17T04:17:30.226Z,19.00
2017-10-17T04:23:27.100Z,19.00
2017-10-17T04:26:01.307Z,19.13
2017-10-17T04:28:44.639Z,19.57
2017-10-17T04:34:34.599Z,19.50
2017-10-17T04:37:09.781Z,19.17
2017-10-17T04:39:38.402Z,19.00
2017-10-17T04:45:36.090Z,18.93
2017-10-17T04:48:13.652Z,17.87
2017-10-17T04:54:17.177Z,16.93
2017-10-17T04:56:47.501Z,18.10
2017-10-17T04:59:19.873Z,20.00
2017-10-17T05:01:57.077Z,19.83
2017-10-17T05:07:37.448Z,19.30
2017-10-17T05:10:06.838Z,19.83
2017-10-17T05:12:36.379Z,20.70
2017-10-17T05:15:05.775Z,20.27
2017-10-17T05:20:46.690Z,16.27
2017-10-17T05:23:16.046Z,16.47
2017-10-17T05:25:44.630Z,15.47
2017-10-17T05:31:14.053Z,17.97
2017-10-17T05:33:58.309Z,17.73
2017-10-17T05:36:44.707Z,17.60
2017-10-17T05:39:13.395Z,18.23
2017-10-17T05:41:42.492Z,18.00
2017-10-17T05:47:09.897Z,14.80
2017-10-17T05:50:11.228Z,15.43
2017-10-17T05:52:42.794Z,18.10
2017-10-17T05:55:12.278Z,16.40
2017-10-17T05:57:40.757Z,16.83
2017-10-17T06:00:09.554Z,19.13
2017-10-17T06:02:37.994Z,18.10
2017-10-17T06:05:06.405Z,15.87
2017-10-17T06:07:35.334Z,16.37
2017-10-17T06:10:04.203Z,16.00
2017-10-17T06:12:32.876Z,16.37
2017-10-17T06:15:02.416Z,16.83
2017-10-17T06:17:32.662Z,13.77
2017-10-17T06:20:02.706Z,16.43
2017-10-17T06:22:31.613Z,15.10
2017-10-17T06:25:00.278Z,15.40
2017-10-17T06:27:29.190Z,15.40
2017-10-17T06:29:57.929Z,15.80
2017-10-17T06:32:27.727Z,17.53
2017-10-17T06:34:56.682Z,16.07
2017-10-17T06:37:26.289Z,17.70
2017-10-17T06:39:55.348Z,15.93
2017-10-17T06:42:24.995Z,14.60
2017-10-17T06:44:54.089Z,14.43
2017-10-17T06:47:22.963Z,13.40
2017-10-17T06:49:52.284Z,13.93
2017-10-17T06:52:21.415Z,13.70
2017-10-17T06:54:50.720Z,17.93
2017-10-17T06:57:19.879Z,23.93
2017-10-17T06:59:49.261Z,12.97
2017-10-17T07:02:18.237Z,15.03
2017-10-17T07:04:48.479Z,16.23
2017-10-17T07:07:18.343Z,14.10
2017-10-17T07:09:47.582Z,13.20
2017-10-17T07:12:16.504Z,12.50
2017-10-17T07:14:45.368Z,15.70
2017-10-17T07:17:14.447Z,14.20
2017-10-17T07:19:43.378Z,13.43
2017-10-17T07:22:12.376Z,13.30
2017-10-17T07:24:41.259Z,14.33
2017-10-17T07:27:10.970Z,14.30
2017-10-17T07:29:39.966Z,14.33
2017-10-17T07:32:08.763Z,14.17
2017-10-17T07:34:38.098Z,14.57
2017-10-17T07:37:07.111Z,14.10
2017-10-17T07:39:36.128Z,19.73
2017-10-17T07:42:05.045Z,13.97
2017-10-17T07:44:34.116Z,17.73
2017-10-17T07:47:03.551Z,15.60
2017-10-17T07:49:34.101Z,17.77
2017-10-17T07:52:03.896Z,14.77
2017-10-17T07:54:32.792Z,13.03
2017-10-17T07:57:02.037Z,15.60
2017-10-17T07:59:31.066Z,13.10
2017-10-17T08:02:00.102Z,12.10
2017-10-17T08:04:30.095Z,14.07
2017-10-17T08:06:59.327Z,16.83
2017-10-17T08:09:29.288Z,13.00
2017-10-17T08:11:58.997Z,13.13
2017-10-17T08:14:29.110Z,11.60
2017-10-17T08:16:58.217Z,11.00
2017-10-17T08:19:27.105Z,11.50
2017-10-17T08:21:55.796Z,11.50
2017-10-17T08:24:25.636Z,10.77
2017-10-17T08:26:54.733Z,10.70
2017-10-17T08:29:23.699Z,10.77
2017-10-17T08:31:52.586Z,11.93
2017-10-17T08:34:21.593Z,10.67
2017-10-17T08:36:50.888Z,10.10
2017-10-17T08:39:20.026Z,10.77
2017-10-17T08:41:50.273Z,17.13
2017-10-17T08:44:20.160Z,8.93
2017-10-17T08:46:48.992Z,9.40
2017-10-17T08:49:18.131Z,9.80
2017-10-17T08:51:47.191Z,7.53
2017-10-17T08:54:17.047Z,9.07
2017-10-17T08:56:47.029Z,10.57
2017-10-17T08:59:15.811Z,11.13
2017-10-17T09:01:44.744Z,10.90
2017-10-17T09:04:13.941Z,11.10
2017-10-17T09:06:43.097Z,8.70
2017-10-17T09:09:12.091Z,15.17
2017-10-17T09:11:41.422Z,10.43
2017-10-17T09:14:10.730Z,7.90
2017-10-17T09:16:39.480Z,8.67
2017-10-17T09:19:08.444Z,8.57
2017-10-17T09:21:37.421Z,9.00
2017-10-17T09:24:06.366Z,8.73
2017-10-17T09:26:35.717Z,9.23
2017-10-17T09:29:04.918Z,9.90
2017-10-17T09:31:33.913Z,9.07
2017-10-17T09:34:02.751Z,9.10
2017-10-17T09:36:31.845Z,10.97
2017-10-17T09:39:01.659Z,9.87
2017-10-17T09:41:31.160Z,8.93
2017-10-17T09:44:00.061Z,8.70
2017-10-17T09:46:29.358Z,10.20
2017-10-17T09:48:58.245Z,8.23
2017-10-17T09:51:27.560Z,8.83
2017-10-17T09:53:57.682Z,10.10
2017-10-17T09:56:27.910Z,10.97
2017-10-17T09:58:57.026Z,8.53
2017-10-17T10:01:26.381Z,11.77
2017-10-17T10:03:56.674Z,11.00
2017-10-17T10:06:25.802Z,8.80
2017-10-17T10:08:55.779Z,9.37
2017-10-17T10:11:25.325Z,9.30
2017-10-17T10:13:55.923Z,8.67
2017-10-17T10:16:25.580Z,8.50
2017-10-17T10:18:55.451Z,8.60
2017-10-17T10:21:25.222Z,10.63
2017-10-17T10:23:55.028Z,10.07
2017-10-17T10:26:24.200Z,11.33
2017-10-17T10:28:54.221Z,17.20
2017-10-17T10:31:23.115Z,9.20
2017-10-17T10:33:52.410Z,9.23
2017-10-17T10:36:21.412Z,8.17
2017-10-17T10:38:50.321Z,7.87
2017-10-17T10:41:19.452Z,9.37
2017-10-17T10:43:49.014Z,10.17
2017-10-17T10:46:18.744Z,9.80
2017-10-17T10:48:48.180Z,8.80
2017-10-17T10:51:17.112Z,12.57
2017-10-17T10:53:46.122Z,10.83
2017-10-17T10:56:15.165Z,7.97
2017-10-17T10:58:43.982Z,8.40
2017-10-17T11:01:14.102Z,9.77
2017-10-17T11:03:44.134Z,7.63
2017-10-17T11:06:13.011Z,9.17
2017-10-17T11:08:42.018Z,8.60
2017-10-17T11:11:12.023Z,11.20
2017-10-17T11:13:41.634Z,8.67
2017-10-17T11:16:10.518Z,7.97
2017-10-17T11:18:39.620Z,8.70
2017-10-17T11:21:09.329Z,8.53
2017-10-17T11:23:39.146Z,8.77
2017-10-17T11:26:08.643Z,9.53
2017-10-17T11:28:37.587Z,9.00
2017-10-17T11:31:06.361Z,8.20
2017-10-17T11:33:36.032Z,8.13
2017-10-17T11:36:05.340Z,9.57
2017-10-17T11:38:34.723Z,8.60
2017-10-17T11:41:15.338Z,7.37
2017-10-17T11:43:50.951Z,13.33
2017-10-17T11:46:20.260Z,7.30
2017-10-17T11:48:50.159Z,11.00
2017-10-17T11:51:19.066Z,7.73
2017-10-17T11:53:48.098Z,13.97
2017-10-17T11:56:17.766Z,9.40
2017-10-17T11:58:46.652Z,18.33
2017-10-17T12:01:15.649Z,9.77
2017-10-17T12:03:44.442Z,7.50
2017-10-17T12:06:14.250Z,7.50
2017-10-17T12:08:43.138Z,10.00
2017-10-17T12:11:12.099Z,10.10
2017-10-17T12:13:43.761Z,8.90
2017-10-17T12:16:12.882Z,7.40
2017-10-17T12:18:41.922Z,8.10
2017-10-17T12:21:11.999Z,8.80
2017-10-17T12:23:41.148Z,7.30
2017-10-17T12:26:10.989Z,8.77
2017-10-17T12:28:40.369Z,9.37
2017-10-17T12:31:09.512Z,7.73
2017-10-17T12:33:38.940Z,11.23
2017-10-17T12:36:08.629Z,8.80
2017-10-17T12:38:37.551Z,11.20
2017-10-17T12:41:07.047Z,8.43
2017-10-17T12:43:36.197Z,8.30
2017-10-17T12:46:05.065Z,9.43
2017-10-17T12:48:34.727Z,9.03
2017-10-17T12:51:03.899Z,10.37
2017-10-17T12:53:33.832Z,8.77
2017-10-17T12:56:03.648Z,10.20
2017-10-17T12:58:33.689Z,14.20
2017-10-17T13:01:03.607Z,7.23
2017-10-17T13:03:33.445Z,11.80
2017-10-17T13:06:02.595Z,8.47
2017-10-17T13:08:32.413Z,7.80
2017-10-17T13:11:01.514Z,5.73
2017-10-17T13:13:30.626Z,5.50
2017-10-17T13:15:59.999Z,6.00
2017-10-17T13:18:30.402Z,6.10
2017-10-17T13:20:59.821Z,5.70
2017-10-17T13:23:28.815Z,6.17
2017-10-17T13:25:57.913Z,5.83
2017-10-17T13:28:27.187Z,6.30
2017-10-17T13:30:56.755Z,5.30
2017-10-17T13:33:26.643Z,6.00
2017-10-17T13:35:56.107Z,6.50
2017-10-17T13:38:25.644Z,5.63
2017-10-17T13:40:54.561Z,6.10
2017-10-17T13:43:24.359Z,5.70
2017-10-17T13:45:53.447Z,5.93
2017-10-17T13:48:22.537Z,6.10
2017-10-17T13:50:51.326Z,5.33
2017-10-17T13:53:20.150Z,5.07
2017-10-17T13:55:49.684Z,6.60
2017-10-17T13:58:19.357Z,6.40
2017-10-17T14:00:48.121Z,5.90
2017-10-17T14:03:18.164Z,6.57
2017-10-17T14:05:47.214Z,5.37
2017-10-17T14:08:17.435Z,6.10
2017-10-17T14:10:46.597Z,6.27
2017-10-17T14:13:16.261Z,5.18
2017-10-17T14:18:26.946Z,4.90
2017-10-17T14:20:56.794Z,5.23
2017-10-17T14:23:27.082Z,7.87
2017-10-17T14:25:55.974Z,5.17
2017-10-17T14:28:24.864Z,6.60
2017-10-17T14:30:53.764Z,6.67
2017-10-17T14:33:23.792Z,6.70
2017-10-17T14:35:52.802Z,5.60
2017-10-17T14:38:21.758Z,6.77
2017-10-17T14:40:50.606Z,6.70
2017-10-17T14:43:20.257Z,10.17
2017-10-17T14:45:49.615Z,5.87
2017-10-17T14:48:19.390Z,5.10
2017-10-17T14:50:49.052Z,6.17
2017-10-17T14:53:17.953Z,7.30
2017-10-17T14:55:47.028Z,7.10
2017-10-17T14:58:16.032Z,8.33
2017-10-17T15:00:45.159Z,7.37
2017-10-17T15:03:14.153Z,10.00
2017-10-17T15:05:44.170Z,8.83
2017-10-17T15:08:13.060Z,8.43
2017-10-17T15:10:42.959Z,8.33
2017-10-17T15:13:12.998Z,7.57
2017-10-17T15:15:41.981Z,7.73
2017-10-17T15:18:11.089Z,8.23
2017-10-17T15:20:40.181Z,7.50
2017-10-17T15:23:09.346Z,7.23
2017-10-17T15:25:38.632Z,8.07
2017-10-17T15:28:08.603Z,7.50
2017-10-17T15:30:37.967Z,7.30
2017-10-17T15:33:06.969Z,7.70
2017-10-17T15:35:36.256Z,7.40
2017-10-17T15:38:05.028Z,7.80
2017-10-17T15:40:34.320Z,8.53
2017-10-17T15:43:03.605Z,8.93
2017-10-17T15:45:32.984Z,8.43
2017-10-17T15:48:02.801Z,9.23
2017-10-17T15:50:32.856Z,10.37
2017-10-17T15:53:01.803Z,9.83
2017-10-17T15:55:31.386Z,8.50
2017-10-17T15:58:01.224Z,8.70
2017-10-17T16:00:30.362Z,8.70
2017-10-17T16:02:59.814Z,8.93
2017-10-17T16:05:29.953Z,7.60
2017-10-17T16:07:59.402Z,8.07
2017-10-17T16:10:29.203Z,10.03
2017-10-17T16:12:59.390Z,9.20
2017-10-17T16:15:29.326Z,9.40
2017-10-17T16:17:58.312Z,10.40
2017-10-17T16:20:28.337Z,8.73
2017-10-17T16:22:58.314Z,9.27
2017-10-17T16:25:28.805Z,10.07
2017-10-17T16:27:57.653Z,9.20
2017-10-17T16:30:27.462Z,9.47
2017-10-17T16:32:56.905Z,9.33
2017-10-17T16:35:26.217Z,10.50
2017-10-17T16:37:55.535Z,8.97
2017-10-17T16:40:25.102Z,11.20
2017-10-17T16:42:54.746Z,9.17
2017-10-17T16:45:23.870Z,10.70
2017-10-17T16:47:54.411Z,10.60
2017-10-17T16:50:23.789Z,11.40
2017-10-17T16:52:52.972Z,11.30
2017-10-17T16:55:22.276Z,10.50
2017-10-17T16:57:51.419Z,10.20
2017-10-17T17:00:20.451Z,11.53
2017-10-17T17:02:49.615Z,9.97
2017-10-17T17:05:18.920Z,11.20
2017-10-17T17:07:48.513Z,16.43
2017-10-17T17:10:17.606Z,11.97
2017-10-17T17:12:46.554Z,11.27
2017-10-17T17:15:16.519Z,11.77
2017-10-17T17:17:45.785Z,9.43
2017-10-17T17:20:15.862Z,8.87
2017-10-17T17:22:45.144Z,10.30
2017-10-17T17:25:14.646Z,10.93
2017-10-17T17:27:44.694Z,8.93
2017-10-17T17:30:14.793Z,11.73
2017-10-17T17:32:44.364Z,8.73
2017-10-17T17:35:13.383Z,11.37
2017-10-17T17:37:42.434Z,17.83
2017-10-17T17:40:11.363Z,10.73
2017-10-17T17:42:41.376Z,16.37
2017-10-17T17:45:11.182Z,9.20
2017-10-17T17:47:40.149Z,14.27
2017-10-17T17:50:09.690Z,11.07
2017-10-17T17:52:39.731Z,15.30
2017-10-17T17:55:09.554Z,13.57
2017-10-17T17:57:39.642Z,10.80
2017-10-17T18:00:09.914Z,10.30
2017-10-17T18:02:39.166Z,8.60
2017-10-17T18:05:16.189Z,16.90
2017-10-17T18:07:46.260Z,12.57
2017-10-17T18:10:15.126Z,13.63
2017-10-17T18:12:44.251Z,9.57
2017-10-17T18:15:13.211Z,10.43
2017-10-17T18:17:42.745Z,10.80
2017-10-17T18:20:12.443Z,9.30
2017-10-17T18:22:42.170Z,10.40
2017-10-17T18:25:11.309Z,13.40
2017-10-17T18:27:40.356Z,11.60
2017-10-17T18:30:09.248Z,11.40
2017-10-17T18:32:38.764Z,11.27
2017-10-17T18:35:07.952Z,13.77
2017-10-17T18:37:37.773Z,10.30
2017-10-17T18:40:06.758Z,11.53
2017-10-17T18:42:35.734Z,10.70
2017-10-17T18:45:04.484Z,12.83
2017-10-17T18:47:33.584Z,13.37
2017-10-17T18:50:02.529Z,12.60
2017-10-17T18:52:31.447Z,19.90
2017-10-17T18:55:00.923Z,12.67
2017-10-17T18:57:31.068Z,9.87
2017-10-17T19:00:01.498Z,12.13
2017-10-17T19:02:30.571Z,12.83
2017-10-17T19:05:00.462Z,13.77
2017-10-17T19:07:29.887Z,11.07
2017-10-17T19:09:59.287Z,11.57
2017-10-17T19:12:28.385Z,9.53
2017-10-17T19:14:57.790Z,11.13
2017-10-17T19:17:27.644Z,11.40
2017-10-17T19:19:59.939Z,10.60
2017-10-17T19:22:28.961Z,9.83
2017-10-17T19:24:57.798Z,10.40
2017-10-17T19:27:27.056Z,12.23
2017-10-17T19:29:56.318Z,17.93
2017-10-17T19:32:25.665Z,16.40
2017-10-17T19:34:55.798Z,15.70
2017-10-17T19:37:25.084Z,17.10
2017-10-17T19:39:54.433Z,14.40
2017-10-17T19:42:25.300Z,14.90
2017-10-17T19:44:54.101Z,34.77
2017-10-17T19:47:23.409Z,14.07
2017-10-17T19:49:52.507Z,14.00
2017-10-17T19:52:21.538Z,12.20
2017-10-17T19:54:50.396Z,14.10
2017-10-17T19:57:19.376Z,15.30
2017-10-17T19:59:48.661Z,17.87
2017-10-17T20:02:17.570Z,16.50
2017-10-17T20:04:46.877Z,14.27
2017-10-17T20:07:15.765Z,15.20
2017-10-17T20:09:44.814Z,14.60
2017-10-17T20:12:13.753Z,14.57
2017-10-17T20:14:42.596Z,14.57
2017-10-17T20:17:12.455Z,14.03
2017-10-17T20:19:41.566Z,16.80
2017-10-17T20:22:10.648Z,14.33
2017-10-17T20:24:39.536Z,14.80
2017-10-17T20:27:08.878Z,14.17
2017-10-17T20:29:37.830Z,16.00
2017-10-17T20:32:06.738Z,14.10
2017-10-17T20:34:36.575Z,15.23
2017-10-17T20:37:05.366Z,18.83
2017-10-17T20:39:34.624Z,15.87
2017-10-17T20:42:04.761Z,12.97
2017-10-17T20:44:33.803Z,14.40
2017-10-17T20:47:02.872Z,35.93
2017-10-17T20:49:33.467Z,16.17
2017-10-17T20:52:02.162Z,13.13
2017-10-17T20:54:31.194Z,14.97
2017-10-17T20:57:00.142Z,16.13
2017-10-17T20:59:29.193Z,15.53
2017-10-17T21:01:58.038Z,18.77
2017-10-17T21:04:27.895Z,15.80
2017-10-17T21:06:56.590Z,15.83
2017-10-17T21:09:25.271Z,15.23
2017-10-17T21:11:54.303Z,25.33
2017-10-17T21:14:24.285Z,15.70
2017-10-17T21:16:52.965Z,15.47
2017-10-17T21:19:21.798Z,14.63
2017-10-17T21:21:50.814Z,16.53
2017-10-17T21:24:19.687Z,14.90
2017-10-17T21:26:48.734Z,15.13
2017-10-17T21:29:17.667Z,20.77
2017-10-17T21:31:46.705Z,19.67
2017-10-17T21:34:16.645Z,15.63
2017-10-17T21:36:45.993Z,18.93
2017-10-17T21:39:14.790Z,16.37
2017-10-17T21:41:43.658Z,16.20
2017-10-17T21:44:13.504Z,15.93
2017-10-17T21:46:42.618Z,15.13
2017-10-17T21:49:12.181Z,18.10
2017-10-17T21:51:41.246Z,15.50
2017-10-17T21:54:10.537Z,17.27
2017-10-17T21:56:39.415Z,14.40
2017-10-17T21:59:08.558Z,14.03
2017-10-17T22:01:39.115Z,14.33
2017-10-17T22:04:09.029Z,18.33
2017-10-17T22:06:37.794Z,15.03
2017-10-17T22:09:08.182Z,15.60
2017-10-17T22:11:45.300Z,14.40
2017-10-17T22:14:16.266Z,14.90
2017-10-17T22:16:45.851Z,13.97
2017-10-17T22:19:16.445Z,15.43
2017-10-17T22:21:46.108Z,16.40
2017-10-17T22:24:16.019Z,15.07
2017-10-17T22:26:45.165Z,14.63
2017-10-17T22:29:14.520Z,17.20
2017-10-17T22:31:44.178Z,18.40
2017-10-17T22:34:13.409Z,15.63
2017-10-17T22:36:42.242Z,15.80
2017-10-17T22:39:12.900Z,15.30
2017-10-17T22:41:42.650Z,16.43
2017-10-17T22:44:12.425Z,14.03
2017-10-17T22:46:42.487Z,15.13
2017-10-17T22:49:11.844Z,25.10
2017-10-17T22:51:40.772Z,15.97
2017-10-17T22:54:10.087Z,14.17
2017-10-17T22:56:38.958Z,14.30
2017-10-17T22:59:08.024Z,15.73
2017-10-17T23:01:37.071Z,15.40
2017-10-17T23:04:06.366Z,14.07
2017-10-17T23:06:35.353Z,14.20
2017-10-17T23:09:06.610Z,14.73
2017-10-17T23:11:35.378Z,16.07
2017-10-17T23:14:05.298Z,15.83
2017-10-17T23:16:35.938Z,15.60
2017-10-17T23:19:17.010Z,20.93
2017-10-17T23:21:45.928Z,15.33
2017-10-17T23:24:14.781Z,14.00
2017-10-17T23:26:43.469Z,12.90
2017-10-17T23:29:12.154Z,13.47
2017-10-17T23:31:40.894Z,13.10
2017-10-17T23:34:09.733Z,13.80
2017-10-17T23:36:38.642Z,14.33
2017-10-17T23:39:07.717Z,15.07
2017-10-17T23:41:36.507Z,14.03
2017-10-17T23:44:05.404Z,13.10
2017-10-17T23:46:34.266Z,13.23
2017-10-17T23:49:03.188Z,13.50
2017-10-17T23:51:32.408Z,13.27
2017-10-17T23:54:01.071Z,12.73
2017-10-17T23:56:29.882Z,12.90
2017-10-17T23:58:59.673Z,13.77
